sensor_id;sensor_type;location;lat;lon;timestamp;P1;durP1;ratioP1;P2;durP2;ratioP2
20046;SDS011;45339;49.838;18.904;2022-11-22T00:09:13;5.03;;;1.83;;
20046;SDS011;45339;49.838;18.904;2022-11-22T00:39:25;4.87;;;1.97;;
20046;SDS011;45339;49.838;18.904;2022-11-22T01:09:36;4.17;;;2.10;;
20046;SDS011;45339;49.838;18.904;2022-11-22T01:39:45;5.40;;;3.67;;
20046;SDS011;45339;49.838;18.904;2022-11-22T02:09:53;4.73;;;1.87;;
20046;SDS011;45339;49.838;18.904;2022-11-22T02:40:14;3.67;;;1.40;;
20046;SDS011;45339;49.838;18.904;2022-11-22T03:10:24;5.27;;;2.40;;
20046;SDS011;45339;49.838;18.904;2022-11-22T03:40:38;3.70;;;1.70;;
20046;SDS011;45339;49.838;18.904;2022-11-22T04:10:52;14.23;;;4.40;;
20046;SDS011;45339;49.838;18.904;2022-11-22T05:11:17;9.40;;;7.57;;
20046;SDS011;45339;49.838;18.904;2022-11-22T05:41:29;4.37;;;2.43;;
20046;SDS011;45339;49.838;18.904;2022-11-22T06:11:40;4.73;;;1.77;;
20046;SDS011;45339;49.838;18.904;2022-11-22T06:41:48;16.27;;;4.30;;
20046;SDS011;45339;49.838;18.904;2022-11-22T07:11:57;8.77;;;4.97;;
20046;SDS011;45339;49.838;18.904;2022-11-22T07:42:14;10.40;;;8.70;;
20046;SDS011;45339;49.838;18.904;2022-11-22T08:12:34;31.50;;;11.87;;
20046;SDS011;45339;49.838;18.904;2022-11-22T08:42:46;22.97;;;8.90;;
20046;SDS011;45339;49.838;18.904;2022-11-22T09:12:54;16.97;;;9.37;;
20046;SDS011;45339;49.838;18.904;2022-11-22T09:43:08;10.10;;;5.90;;
20046;SDS011;45339;49.838;18.904;2022-11-22T10:13:27;10.00;;;6.30;;
20046;SDS011;45339;49.838;18.904;2022-11-22T10:43:49;3.93;;;3.40;;
20046;SDS011;45339;49.838;18.904;2022-11-22T11:14:17;16.00;;;3.87;;
20046;SDS011;45339;49.838;18.904;2022-11-22T11:44:39;108.30;;;22.67;;
20046;SDS011;45339;49.838;18.904;2022-11-22T12:14:52;131.57;;;28.03;;
20046;SDS011;45339;49.838;18.904;2022-11-22T12:45:18;124.53;;;28.00;;
20046;SDS011;45339;49.838;18.904;2022-11-22T13:15:35;124.03;;;29.37;;
20046;SDS011;45339;49.838;18.904;2022-11-22T13:45:51;118.47;;;27.50;;
20046;SDS011;45339;49.838;18.904;2022-11-22T14:46:37;117.23;;;29.13;;
20046;SDS011;45339;49.838;18.904;2022-11-22T15:17:03;116.67;;;27.83;;
20046;SDS011;45339;49.838;18.904;2022-11-22T15:47:34;114.37;;;28.13;;
20046;SDS011;45339;49.838;18.904;2022-11-22T16:18:11;110.80;;;27.10;;
20046;SDS011;45339;49.838;18.904;2022-11-22T16:48:31;105.30;;;26.37;;
20046;SDS011;45339;49.838;18.904;2022-11-22T17:18:40;107.00;;;27.13;;
20046;SDS011;45339;49.838;18.904;2022-11-22T17:48:51;104.73;;;26.70;;
20046;SDS011;45339;49.838;18.904;2022-11-22T18:19:06;101.77;;;26.47;;
20046;SDS011;45339;49.838;18.904;2022-11-22T18:49:29;96.30;;;25.27;;
20046;SDS011;45339;49.838;18.904;2022-11-22T19:19:39;97.27;;;26.30;;
20046;SDS011;45339;49.838;18.904;2022-11-22T19:49:47;95.93;;;25.57;;
20046;SDS011;45339;49.838;18.904;2022-11-22T20:19:56;95.93;;;24.93;;
20046;SDS011;45339;49.838;18.904;2022-11-22T20:50:13;97.03;;;25.40;;
20046;SDS011;45339;49.838;18.904;2022-11-22T21:20:25;91.10;;;24.33;;
20046;SDS011;45339;49.838;18.904;2022-11-22T21:50:33;93.90;;;24.33;;
20046;SDS011;45339;49.838;18.904;2022-11-22T22:20:46;100.23;;;25.40;;
20046;SDS011;45339;49.838;18.904;2022-11-22T22:51:09;96.53;;;24.37;;
20046;SDS011;45339;49.838;18.904;2022-11-22T23:21:44;102.73;;;25.37;;
20046;SDS011;45339;49.838;18.904;2022-11-22T23:51:56;102.80;;;25.27;;
